This is the latest recevied weather packets stored in our database for station/object eb1ayw-13. If no packets are shown the sender has not sent any weather packets the latest 10 day(s).
| Time | Temp. | Humidity | Pressure | Rain* | Wind** | Luminosity | Snow |
|---|---|---|---|---|---|---|---|
| 1777880268 | 39.44° C | 17% | 1003.1 hPa | - | - | - | - |
| 1777879668 | 35.56° C | 19% | 1004 hPa | - | - | - | - |
| 1777879068 | 37.78° C | 17% | 1003.5 hPa | - | - | - | - |
| 1777878468 | 37.78° C | 17% | 1003.5 hPa | - | - | - | - |
| 1777877868 | 39.44° C | 16% | 1002.9 hPa | - | - | - | - |
| 1777877268 | 36.67° C | 18% | 1003.7 hPa | - | - | - | - |
| 1777876668 | 35.56° C | 19% | 1003.8 hPa | - | - | - | - |
| 1777876068 | 40° C | 16% | 1002.6 hPa | - | - | - | - |
| 1777875468 | 45° C | 12% | 1001.3 hPa | - | - | - | - |
| 1777874868 | 45.56° C | 12% | 1001.1 hPa | - | - | - | - |
| 1777874268 | 47.22° C | 11% | 1000.7 hPa | - | - | - | - |
| 1777873668 | 41.67° C | 15% | 1001.8 hPa | - | - | - | - |
| 1777873068 | 33.33° C | 21% | 1004.1 hPa | - | - | - | - |
| 1777872468 | 37.78° C | 17% | 1002.8 hPa | - | - | - | - |
| 1777871868 | 31.11° C | 23% | 1004.4 hPa | - | - | - | - |
| 1777871268 | 32.22° C | 21% | 1003.9 hPa | - | - | - | - |
| 1777870668 | 31.67° C | 22% | 1004.1 hPa | - | - | - | - |
| 1777870068 | 33.33° C | 21% | 1003.6 hPa | - | - | - | - |
| 1777869468 | 40° C | 16% | 1002.1 hPa | - | - | - | - |
| 1777868868 | 36.67° C | 19% | 1002.9 hPa | - | - | - | - |
| 1777868268 | 38.89° C | 17% | 1002.2 hPa | - | - | - | - |
| 1777867668 | 35° C | 20% | 1003.4 hPa | - | - | - | - |
| 1777867073 | 36.67° C | 18% | 1003 hPa | - | - | - | - |
| 1777866468 | 33.33° C | 21% | 1004 hPa | - | - | - | - |
| 1777865868 | 40° C | 17% | 1002.2 hPa | - | - | - | - |
* Rain since midnight (hover to see other rain measurements)
** Current wind speed in m/s (hover to see current wind gust speed)